sensor_id;sensor_type;location;lat;lon;timestamp;P1;P2;P0
73146;PMS7003;61345;48.922;2.244;2023-02-28T00:00:41;21.25;14.00;9.50
73146;PMS7003;61345;48.922;2.244;2023-02-28T00:03:08;14.25;12.00;7.75
73146;PMS7003;61345;48.922;2.244;2023-02-28T00:05:33;16.75;12.25;9.50
73146;PMS7003;61345;48.922;2.244;2023-02-28T00:07:59;14.50;13.00;10.00
73146;PMS7003;61345;48.922;2.244;2023-02-28T00:10:25;20.00;15.50;10.00
73146;PMS7003;61345;48.922;2.244;2023-02-28T00:12:53;19.50;11.25;7.75
73146;PMS7003;61345;48.922;2.244;2023-02-28T00:15:22;18.00;12.00;9.00
73146;PMS7003;61345;48.922;2.244;2023-02-28T00:17:48;17.75;13.00;9.25
73146;PMS7003;61345;48.922;2.244;2023-02-28T00:20:13;14.75;10.00;8.00
73146;PMS7003;61345;48.922;2.244;2023-02-28T00:22:39;18.75;13.00;9.50
73146;PMS7003;61345;48.922;2.244;2023-02-28T00:25:09;12.50;12.50;9.75
73146;PMS7003;61345;48.922;2.244;2023-02-28T00:27:36;12.50;10.00;7.00
73146;PMS7003;61345;48.922;2.244;2023-02-28T00:30:03;16.00;12.25;9.25
73146;PMS7003;61345;48.922;2.244;2023-02-28T00:32:29;15.75;13.50;9.50
73146;PMS7003;61345;48.922;2.244;2023-02-28T00:34:55;8.75;6.25;4.50
73146;PMS7003;61345;48.922;2.244;2023-02-28T00:37:20;22.75;10.00;7.00
73146;PMS7003;61345;48.922;2.244;2023-02-28T00:39:46;19.00;13.00;9.50
73146;PMS7003;61345;48.922;2.244;2023-02-28T00:42:11;10.50;9.25;6.75
73146;PMS7003;61345;48.922;2.244;2023-02-28T00:44:36;12.00;9.75;7.00
73146;PMS7003;61345;48.922;2.244;2023-02-28T00:47:02;13.75;11.00;7.00
73146;PMS7003;61345;48.922;2.244;2023-02-28T00:49:27;15.50;13.00;9.00
73146;PMS7003;61345;48.922;2.244;2023-02-28T00:51:53;15.00;11.50;7.00
73146;PMS7003;61345;48.922;2.244;2023-02-28T00:54:19;13.75;11.00;8.50
73146;PMS7003;61345;48.922;2.244;2023-02-28T00:56:45;15.50;10.50;7.00
73146;PMS7003;61345;48.922;2.244;2023-02-28T00:59:11;16.75;10.50;7.50
73146;PMS7003;61345;48.922;2.244;2023-02-28T01:01:36;16.50;10.00;9.00
73146;PMS7003;61345;48.922;2.244;2023-02-28T01:04:02;10.00;9.00;6.00
73146;PMS7003;61345;48.922;2.244;2023-02-28T01:06:28;17.50;12.50;9.00
73146;PMS7003;61345;48.922;2.244;2023-02-28T01:08:53;14.00;11.50;9.00
73146;PMS7003;61345;48.922;2.244;2023-02-28T01:11:18;20.00;13.00;10.00
73146;PMS7003;61345;48.922;2.244;2023-02-28T01:13:45;18.75;13.00;10.00
73146;PMS7003;61345;48.922;2.244;2023-02-28T01:16:10;13.25;8.00;6.00
73146;PMS7003;61345;48.922;2.244;2023-02-28T01:18:36;10.00;9.75;6.00
73146;PMS7003;61345;48.922;2.244;2023-02-28T01:21:06;18.25;8.00;6.00
73146;PMS7003;61345;48.922;2.244;2023-02-28T01:23:32;14.00;11.00;7.50
73146;PMS7003;61345;48.922;2.244;2023-02-28T01:25:58;13.00;11.50;8.00
73146;PMS7003;61345;48.922;2.244;2023-02-28T01:28:29;12.25;11.00;7.00
73146;PMS7003;61345;48.922;2.244;2023-02-28T01:30:54;16.00;11.00;7.00
73146;PMS7003;61345;48.922;2.244;2023-02-28T01:33:20;12.00;9.75;7.00
73146;PMS7003;61345;48.922;2.244;2023-02-28T01:35:45;11.50;11.50;9.00
73146;PMS7003;61345;48.922;2.244;2023-02-28T01:38:10;11.75;9.00;6.75
73146;PMS7003;61345;48.922;2.244;2023-02-28T01:40:36;14.00;9.25;7.00
73146;PMS7003;61345;48.922;2.244;2023-02-28T01:43:01;15.25;9.50;7.00
73146;PMS7003;61345;48.922;2.244;2023-02-28T01:45:27;11.25;9.75;8.00
73146;PMS7003;61345;48.922;2.244;2023-02-28T01:47:55;16.25;10.00;7.00
73146;PMS7003;61345;48.922;2.244;2023-02-28T01:50:25;13.00;12.25;7.00
73146;PMS7003;61345;48.922;2.244;2023-02-28T01:52:52;5.25;0.75;0.00
73146;PMS7003;61345;48.922;2.244;2023-02-28T01:55:21;17.00;10.00;7.00
73146;PMS7003;61345;48.922;2.244;2023-02-28T01:57:48;9.75;9.25;5.50
73146;PMS7003;61345;48.922;2.244;2023-02-28T02:00:17;13.00;10.00;8.50
73146;PMS7003;61345;48.922;2.244;2023-02-28T02:02:45;15.25;9.50;8.00
73146;PMS7003;61345;48.922;2.244;2023-02-28T02:07:45;18.50;13.00;9.00
73146;PMS7003;61345;48.922;2.244;2023-02-28T02:10:18;15.00;12.25;9.00
73146;PMS7003;61345;48.922;2.244;2023-02-28T02:13:08;12.00;9.00;7.00
73146;PMS7003;61345;48.922;2.244;2023-02-28T02:18:47;9.00;9.00;7.50
73146;PMS7003;61345;48.922;2.244;2023-02-28T02:35:15;13.25;8.50;6.00
73146;PMS7003;61345;48.922;2.244;2023-02-28T02:40:38;9.75;9.25;6.25
73146;PMS7003;61345;48.922;2.244;2023-02-28T02:46:16;15.00;8.00;6.00
73146;PMS7003;61345;48.922;2.244;2023-02-28T02:48:44;10.00;7.50;6.00
73146;PMS7003;61345;48.922;2.244;2023-02-28T02:51:12;16.50;11.50;7.00
73146;PMS7003;61345;48.922;2.244;2023-02-28T02:54:03;10.50;7.50;6.25
73146;PMS7003;61345;48.922;2.244;2023-02-28T02:56:28;13.00;10.50;8.00
73146;PMS7003;61345;48.922;2.244;2023-02-28T02:58:57;16.00;10.00;6.00
73146;PMS7003;61345;48.922;2.244;2023-02-28T03:01:26;12.25;6.75;6.00
73146;PMS7003;61345;48.922;2.244;2023-02-28T03:03:57;16.75;10.00;6.25
73146;PMS7003;61345;48.922;2.244;2023-02-28T03:06:25;9.00;7.00;6.00
73146;PMS7003;61345;48.922;2.244;2023-02-28T03:08:51;10.00;7.50;6.00
73146;PMS7003;61345;48.922;2.244;2023-02-28T03:11:16;14.50;9.00;6.25
73146;PMS7003;61345;48.922;2.244;2023-02-28T03:13:44;18.75;13.00;9.00
73146;PMS7003;61345;48.922;2.244;2023-02-28T03:16:23;11.00;8.50;6.75
73146;PMS7003;61345;48.922;2.244;2023-02-28T03:26:36;10.00;6.00;4.00
73146;PMS7003;61345;48.922;2.244;2023-02-28T03:29:06;9.00;8.00;6.00
73146;PMS7003;61345;48.922;2.244;2023-02-28T03:31:50;12.75;10.00;6.00
73146;PMS7003;61345;48.922;2.244;2023-02-28T03:34:24;10.00;8.00;6.00
73146;PMS7003;61345;48.922;2.244;2023-02-28T03:36:55;11.50;6.75;5.00
73146;PMS7003;61345;48.922;2.244;2023-02-28T03:39:34;16.50;10.50;7.00
73146;PMS7003;61345;48.922;2.244;2023-02-28T03:42:36;12.00;9.50;7.00
73146;PMS7003;61345;48.922;2.244;2023-02-28T03:44:58;13.00;7.50;6.00
73146;PMS7003;61345;48.922;2.244;2023-02-28T03:47:33;13.50;8.75;6.25
73146;PMS7003;61345;48.922;2.244;2023-02-28T03:52:35;13.75;6.00;4.00
73146;PMS7003;61345;48.922;2.244;2023-02-28T03:55:10;13.25;8.75;6.75
73146;PMS7003;61345;48.922;2.244;2023-02-28T03:57:48;12.25;11.50;7.00
73146;PMS7003;61345;48.922;2.244;2023-02-28T04:00:20;9.75;8.00;6.50
73146;PMS7003;61345;48.922;2.244;2023-02-28T04:02:46;10.50;6.00;5.00
73146;PMS7003;61345;48.922;2.244;2023-02-28T04:05:17;10.50;7.00;6.00
73146;PMS7003;61345;48.922;2.244;2023-02-28T04:07:44;7.75;7.50;6.50
73146;PMS7003;61345;48.922;2.244;2023-02-28T04:10:09;11.50;9.75;7.00
73146;PMS7003;61345;48.922;2.244;2023-02-28T04:12:36;9.25;6.25;5.00
73146;PMS7003;61345;48.922;2.244;2023-02-28T04:15:01;12.75;9.00;6.50
73146;PMS7003;61345;48.922;2.244;2023-02-28T04:17:26;9.00;8.00;6.50
73146;PMS7003;61345;48.922;2.244;2023-02-28T04:19:52;9.00;9.00;6.00
73146;PMS7003;61345;48.922;2.244;2023-02-28T04:22:19;12.00;9.50;6.25
73146;PMS7003;61345;48.922;2.244;2023-02-28T04:24:44;14.00;10.00;7.00
73146;PMS7003;61345;48.922;2.244;2023-02-28T04:27:09;12.00;8.50;5.00
73146;PMS7003;61345;48.922;2.244;2023-02-28T04:29:35;11.50;9.50;7.00
73146;PMS7003;61345;48.922;2.244;2023-02-28T04:32:01;12.25;10.00;6.50
73146;PMS7003;61345;48.922;2.244;2023-02-28T04:34:27;13.25;7.50;4.00
73146;PMS7003;61345;48.922;2.244;2023-02-28T04:36:54;11.00;8.50;6.50
73146;PMS7003;61345;48.922;2.244;2023-02-28T04:39:21;9.25;8.50;6.50
73146;PMS7003;61345;48.922;2.244;2023-02-28T04:41:47;14.50;12.75;9.00
73146;PMS7003;61345;48.922;2.244;2023-02-28T04:44:12;12.00;9.75;7.00
73146;PMS7003;61345;48.922;2.244;2023-02-28T04:46:38;12.75;9.75;7.00
73146;PMS7003;61345;48.922;2.244;2023-02-28T04:49:03;9.00;6.00;3.50
73146;PMS7003;61345;48.922;2.244;2023-02-28T04:51:29;10.00;10.00;7.00
73146;PMS7003;61345;48.922;2.244;2023-02-28T04:53:54;10.50;8.00;6.50
73146;PMS7003;61345;48.922;2.244;2023-02-28T04:56:20;16.00;9.00;7.00
73146;PMS7003;61345;48.922;2.244;2023-02-28T04:58:46;11.50;10.00;7.50
73146;PMS7003;61345;48.922;2.244;2023-02-28T05:03:48;12.75;10.75;6.25
73146;PMS7003;61345;48.922;2.244;2023-02-28T05:06:14;10.75;8.75;7.00
73146;PMS7003;61345;48.922;2.244;2023-02-28T05:08:40;12.25;9.00;6.25
73146;PMS7003;61345;48.922;2.244;2023-02-28T05:11:06;14.00;9.00;7.00
73146;PMS7003;61345;48.922;2.244;2023-02-28T05:13:36;10.00;10.00;9.00
73146;PMS7003;61345;48.922;2.244;2023-02-28T05:16:01;13.75;10.00;8.00
73146;PMS7003;61345;48.922;2.244;2023-02-28T05:18:26;11.00;7.00;4.00
73146;PMS7003;61345;48.922;2.244;2023-02-28T05:20:52;18.25;7.50;6.00
73146;PMS7003;61345;48.922;2.244;2023-02-28T05:23:17;11.00;11.00;7.00
73146;PMS7003;61345;48.922;2.244;2023-02-28T05:25:44;17.00;14.50;9.50
73146;PMS7003;61345;48.922;2.244;2023-02-28T05:28:10;20.75;13.00;9.75
73146;PMS7003;61345;48.922;2.244;2023-02-28T05:30:35;16.50;12.50;9.25
73146;PMS7003;61345;48.922;2.244;2023-02-28T05:33:00;14.75;10.50;9.00
73146;PMS7003;61345;48.922;2.244;2023-02-28T05:35:26;19.50;13.50;9.25
73146;PMS7003;61345;48.922;2.244;2023-02-28T05:37:51;22.25;15.25;11.50
73146;PMS7003;61345;48.922;2.244;2023-02-28T05:40:17;23.75;18.50;10.00
73146;PMS7003;61345;48.922;2.244;2023-02-28T05:42:45;15.00;15.00;9.00
73146;PMS7003;61345;48.922;2.244;2023-02-28T05:45:11;22.00;14.00;10.00
73146;PMS7003;61345;48.922;2.244;2023-02-28T05:47:37;13.00;12.00;9.00
73146;PMS7003;61345;48.922;2.244;2023-02-28T05:50:03;15.00;14.00;9.00
73146;PMS7003;61345;48.922;2.244;2023-02-28T05:52:29;17.75;10.00;7.50
73146;PMS7003;61345;48.922;2.244;2023-02-28T05:54:57;17.75;14.75;11.50
73146;PMS7003;61345;48.922;2.244;2023-02-28T05:57:23;22.25;13.75;10.50
73146;PMS7003;61345;48.922;2.244;2023-02-28T05:59:48;23.50;17.00;10.00
73146;PMS7003;61345;48.922;2.244;2023-02-28T06:02:14;18.00;15.50;11.00
73146;PMS7003;61345;48.922;2.244;2023-02-28T06:04:41;21.50;18.00;12.25
73146;PMS7003;61345;48.922;2.244;2023-02-28T06:07:07;23.50;16.00;10.50
73146;PMS7003;61345;48.922;2.244;2023-02-28T06:09:33;21.50;15.25;10.00
73146;PMS7003;61345;48.922;2.244;2023-02-28T06:11:58;16.75;13.50;9.50
73146;PMS7003;61345;48.922;2.244;2023-02-28T06:14:25;22.00;18.00;13.00
73146;PMS7003;61345;48.922;2.244;2023-02-28T06:16:50;17.50;13.00;10.00
73146;PMS7003;61345;48.922;2.244;2023-02-28T06:19:16;21.50;17.50;12.50
73146;PMS7003;61345;48.922;2.244;2023-02-28T06:21:42;30.25;17.25;14.00
73146;PMS7003;61345;48.922;2.244;2023-02-28T06:24:07;30.00;18.00;13.50
73146;PMS7003;61345;48.922;2.244;2023-02-28T06:26:33;30.00;18.75;15.00
73146;PMS7003;61345;48.922;2.244;2023-02-28T06:28:58;25.00;20.00;13.00
73146;PMS7003;61345;48.922;2.244;2023-02-28T06:31:23;24.50;17.50;11.00
73146;PMS7003;61345;48.922;2.244;2023-02-28T06:33:50;24.50;18.00;13.00
73146;PMS7003;61345;48.922;2.244;2023-02-28T06:36:16;26.00;18.25;13.00
73146;PMS7003;61345;48.922;2.244;2023-02-28T06:38:42;24.75;19.00;15.00
73146;PMS7003;61345;48.922;2.244;2023-02-28T06:41:08;28.00;18.75;13.00
73146;PMS7003;61345;48.922;2.244;2023-02-28T06:43:35;27.00;19.50;15.00
73146;PMS7003;61345;48.922;2.244;2023-02-28T06:46:03;25.75;22.50;15.00
73146;PMS7003;61345;48.922;2.244;2023-02-28T06:48:30;19.25;18.00;12.00
73146;PMS7003;61345;48.922;2.244;2023-02-28T06:51:05;28.50;19.50;14.50
73146;PMS7003;61345;48.922;2.244;2023-02-28T06:53:35;26.25;20.75;14.00
73146;PMS7003;61345;48.922;2.244;2023-02-28T06:56:08;24.50;21.25;13.00
73146;PMS7003;61345;48.922;2.244;2023-02-28T06:58:37;27.00;22.00;15.00
73146;PMS7003;61345;48.922;2.244;2023-02-28T07:01:04;31.25;21.25;15.00
73146;PMS7003;61345;48.922;2.244;2023-02-28T07:03:30;29.00;23.50;15.50
73146;PMS7003;61345;48.922;2.244;2023-02-28T07:05:55;20.50;17.50;12.25
73146;PMS7003;61345;48.922;2.244;2023-02-28T07:08:24;30.75;21.75;14.50
73146;PMS7003;61345;48.922;2.244;2023-02-28T07:10:53;24.00;22.00;15.50
73146;PMS7003;61345;48.922;2.244;2023-02-28T07:13:20;27.50;22.00;15.00
73146;PMS7003;61345;48.922;2.244;2023-02-28T07:15:52;29.50;22.00;15.25
73146;PMS7003;61345;48.922;2.244;2023-02-28T07:18:27;28.25;19.00;14.50
73146;PMS7003;61345;48.922;2.244;2023-02-28T07:20:53;26.25;21.00;15.00
73146;PMS7003;61345;48.922;2.244;2023-02-28T07:23:18;28.00;20.00;15.50
73146;PMS7003;61345;48.922;2.244;2023-02-28T07:25:44;26.50;20.50;14.00
73146;PMS7003;61345;48.922;2.244;2023-02-28T07:28:10;26.25;21.00;14.50
73146;PMS7003;61345;48.922;2.244;2023-02-28T07:30:36;31.75;21.00;13.00
73146;PMS7003;61345;48.922;2.244;2023-02-28T07:33:01;27.50;20.50;13.50
73146;PMS7003;61345;48.922;2.244;2023-02-28T07:35:26;27.50;22.25;14.00
73146;PMS7003;61345;48.922;2.244;2023-02-28T07:37:52;33.25;23.25;17.00
73146;PMS7003;61345;48.922;2.244;2023-02-28T07:40:17;28.25;21.50;17.00
73146;PMS7003;61345;48.922;2.244;2023-02-28T07:42:42;33.50;19.50;13.50
73146;PMS7003;61345;48.922;2.244;2023-02-28T07:45:08;25.50;22.50;12.75
73146;PMS7003;61345;48.922;2.244;2023-02-28T07:47:36;33.50;19.00;14.50
73146;PMS7003;61345;48.922;2.244;2023-02-28T07:50:02;39.25;22.00;16.00
73146;PMS7003;61345;48.922;2.244;2023-02-28T07:52:28;32.25;24.75;15.50
73146;PMS7003;61345;48.922;2.244;2023-02-28T07:54:53;35.25;26.00;16.00
73146;PMS7003;61345;48.922;2.244;2023-02-28T07:57:18;23.25;22.00;17.00
73146;PMS7003;61345;48.922;2.244;2023-02-28T07:59:44;24.75;20.50;16.00
73146;PMS7003;61345;48.922;2.244;2023-02-28T08:02:12;23.75;23.00;16.50
73146;PMS7003;61345;48.922;2.244;2023-02-28T08:04:41;28.75;23.50;18.00
73146;PMS7003;61345;48.922;2.244;2023-02-28T08:07:06;30.75;23.75;16.50
73146;PMS7003;61345;48.922;2.244;2023-02-28T08:09:32;28.00;18.75;12.75
73146;PMS7003;61345;48.922;2.244;2023-02-28T08:11:57;27.50;18.00;12.50
73146;PMS7003;61345;48.922;2.244;2023-02-28T08:14:23;27.75;22.50;15.75
73146;PMS7003;61345;48.922;2.244;2023-02-28T08:16:48;30.50;24.25;16.50
73146;PMS7003;61345;48.922;2.244;2023-02-28T08:19:13;29.00;19.50;13.00
73146;PMS7003;61345;48.922;2.244;2023-02-28T08:21:39;28.00;21.00;15.00
73146;PMS7003;61345;48.922;2.244;2023-02-28T08:24:05;33.25;27.75;16.50
73146;PMS7003;61345;48.922;2.244;2023-02-28T08:26:30;31.75;23.00;17.00
73146;PMS7003;61345;48.922;2.244;2023-02-28T08:28:56;32.50;26.50;18.50
73146;PMS7003;61345;48.922;2.244;2023-02-28T08:31:21;29.00;23.00;17.50
73146;PMS7003;61345;48.922;2.244;2023-02-28T08:33:47;25.00;24.50;16.00
73146;PMS7003;61345;48.922;2.244;2023-02-28T08:36:15;23.50;21.75;14.50
73146;PMS7003;61345;48.922;2.244;2023-02-28T08:38:41;29.00;22.00;16.00
73146;PMS7003;61345;48.922;2.244;2023-02-28T08:41:07;31.50;24.25;18.00
73146;PMS7003;61345;48.922;2.244;2023-02-28T08:43:36;32.00;21.00;15.00
73146;PMS7003;61345;48.922;2.244;2023-02-28T08:46:01;25.75;21.25;15.75
73146;PMS7003;61345;48.922;2.244;2023-02-28T08:48:29;30.00;23.50;18.00
73146;PMS7003;61345;48.922;2.244;2023-02-28T08:50:59;31.25;20.75;12.25
73146;PMS7003;61345;48.922;2.244;2023-02-28T08:53:26;30.50;22.50;15.50
73146;PMS7003;61345;48.922;2.244;2023-02-28T08:55:55;30.75;18.75;12.75
73146;PMS7003;61345;48.922;2.244;2023-02-28T08:58:25;27.75;18.25;15.00
73146;PMS7003;61345;48.922;2.244;2023-02-28T09:00:51;24.00;17.25;13.00
73146;PMS7003;61345;48.922;2.244;2023-02-28T09:03:17;25.25;21.25;15.50
73146;PMS7003;61345;48.922;2.244;2023-02-28T09:05:51;33.75;22.00;15.25
73146;PMS7003;61345;48.922;2.244;2023-02-28T09:08:17;24.25;18.50;13.00
73146;PMS7003;61345;48.922;2.244;2023-02-28T09:10:42;36.00;20.00;15.25
73146;PMS7003;61345;48.922;2.244;2023-02-28T09:13:08;32.25;24.00;18.00
73146;PMS7003;61345;48.922;2.244;2023-02-28T09:15:33;27.25;18.25;13.50
73146;PMS7003;61345;48.922;2.244;2023-02-28T09:18:00;23.00;21.75;14.75
73146;PMS7003;61345;48.922;2.244;2023-02-28T09:20:25;27.50;21.75;15.75
73146;PMS7003;61345;48.922;2.244;2023-02-28T09:22:50;24.75;18.50;13.00
73146;PMS7003;61345;48.922;2.244;2023-02-28T09:25:16;30.25;19.00;15.00
73146;PMS7003;61345;48.922;2.244;2023-02-28T09:27:41;32.00;22.00;15.50
73146;PMS7003;61345;48.922;2.244;2023-02-28T09:30:06;25.00;21.50;15.25
73146;PMS7003;61345;48.922;2.244;2023-02-28T09:32:32;26.25;21.25;15.00
73146;PMS7003;61345;48.922;2.244;2023-02-28T09:34:58;27.75;21.00;15.50
73146;PMS7003;61345;48.922;2.244;2023-02-28T09:37:23;20.50;15.50;12.25
73146;PMS7003;61345;48.922;2.244;2023-02-28T09:39:48;28.25;22.50;16.00
73146;PMS7003;61345;48.922;2.244;2023-02-28T09:42:18;22.75;18.00;13.00
73146;PMS7003;61345;48.922;2.244;2023-02-28T09:44:47;27.25;20.50;15.00
73146;PMS7003;61345;48.922;2.244;2023-02-28T09:50:08;30.50;19.50;13.00
73146;PMS7003;61345;48.922;2.244;2023-02-28T09:53:02;13.00;8.00;3.00
73146;PMS7003;61345;48.922;2.244;2023-02-28T09:55:38;23.50;14.50;11.00
73146;PMS7003;61345;48.922;2.244;2023-02-28T09:58:24;23.50;17.75;11.25
73146;PMS7003;61345;48.922;2.244;2023-02-28T10:01:41;20.00;18.25;12.00
73146;PMS7003;61345;48.922;2.244;2023-02-28T10:04:03;19.00;16.25;12.00
73146;PMS7003;61345;48.922;2.244;2023-02-28T10:06:38;29.00;18.75;12.25
73146;PMS7003;61345;48.922;2.244;2023-02-28T10:09:19;23.25;15.50;10.00
73146;PMS7003;61345;48.922;2.244;2023-02-28T10:11:48;33.50;29.00;18.50
73146;PMS7003;61345;48.922;2.244;2023-02-28T10:14:16;23.25;15.75;11.25
73146;PMS7003;61345;48.922;2.244;2023-02-28T10:16:49;18.25;15.00;10.50
73146;PMS7003;61345;48.922;2.244;2023-02-28T10:19:28;20.75;13.00;7.50
73146;PMS7003;61345;48.922;2.244;2023-02-28T10:24:33;24.25;16.75;13.00
73146;PMS7003;61345;48.922;2.244;2023-02-28T10:27:01;30.75;19.50;13.00
73146;PMS7003;61345;48.922;2.244;2023-02-28T10:29:37;17.75;16.00;11.25
73146;PMS7003;61345;48.922;2.244;2023-02-28T10:32:05;16.00;12.00;10.00
73146;PMS7003;61345;48.922;2.244;2023-02-28T10:34:31;14.25;12.25;10.00
73146;PMS7003;61345;48.922;2.244;2023-02-28T10:36:56;20.75;14.25;10.25
73146;PMS7003;61345;48.922;2.244;2023-02-28T10:39:36;20.00;14.25;10.50
73146;PMS7003;61345;48.922;2.244;2023-02-28T10:42:03;15.75;10.50;7.50
73146;PMS7003;61345;48.922;2.244;2023-02-28T10:44:28;15.25;14.25;10.00
73146;PMS7003;61345;48.922;2.244;2023-02-28T10:46:54;18.00;13.00;8.00
73146;PMS7003;61345;48.922;2.244;2023-02-28T10:49:21;14.00;13.00;9.00
73146;PMS7003;61345;48.922;2.244;2023-02-28T10:51:57;15.00;12.50;8.00
73146;PMS7003;61345;48.922;2.244;2023-02-28T10:54:29;14.75;11.25;10.25
73146;PMS7003;61345;48.922;2.244;2023-02-28T10:57:20;13.25;10.75;8.50
73146;PMS7003;61345;48.922;2.244;2023-02-28T10:59:52;11.00;9.00;7.25
73146;PMS7003;61345;48.922;2.244;2023-02-28T11:02:34;12.00;10.25;8.00
73146;PMS7003;61345;48.922;2.244;2023-02-28T11:05:01;21.75;10.75;8.00
73146;PMS7003;61345;48.922;2.244;2023-02-28T11:07:27;8.00;7.50;6.00
73146;PMS7003;61345;48.922;2.244;2023-02-28T11:09:54;8.00;4.75;4.50
73146;PMS7003;61345;48.922;2.244;2023-02-28T11:12:27;9.25;9.25;7.00
73146;PMS7003;61345;48.922;2.244;2023-02-28T11:15:04;8.00;5.00;5.00
73146;PMS7003;61345;48.922;2.244;2023-02-28T11:17:31;9.75;6.50;5.00
73146;PMS7003;61345;48.922;2.244;2023-02-28T11:19:58;8.50;8.00;7.00
73146;PMS7003;61345;48.922;2.244;2023-02-28T11:22:29;12.00;8.50;5.50
73146;PMS7003;61345;48.922;2.244;2023-02-28T11:25:01;11.25;7.25;5.00
73146;PMS7003;61345;48.922;2.244;2023-02-28T11:29:56;8.50;8.00;5.00
73146;PMS7003;61345;48.922;2.244;2023-02-28T11:32:29;9.00;8.75;7.00
73146;PMS7003;61345;48.922;2.244;2023-02-28T11:37:36;9.00;9.00;7.50
73146;PMS7003;61345;48.922;2.244;2023-02-28T11:40:02;9.00;9.00;7.50
73146;PMS7003;61345;48.922;2.244;2023-02-28T11:59:05;20.25;17.00;12.00
73146;PMS7003;61345;48.922;2.244;2023-02-28T12:01:38;10.50;9.00;6.75
73146;PMS7003;61345;48.922;2.244;2023-02-28T12:18:05;8.50;7.00;6.00
73146;PMS7003;61345;48.922;2.244;2023-02-28T12:20:38;9.00;9.00;7.00
73146;PMS7003;61345;48.922;2.244;2023-02-28T12:23:19;10.25;8.00;6.00
73146;PMS7003;61345;48.922;2.244;2023-02-28T12:28:41;9.50;7.00;5.00
73146;PMS7003;61345;48.922;2.244;2023-02-28T12:31:09;12.25;8.00;5.00
73146;PMS7003;61345;48.922;2.244;2023-02-28T12:33:42;6.50;6.25;5.00
73146;PMS7003;61345;48.922;2.244;2023-02-28T12:36:12;9.50;8.25;5.75
73146;PMS7003;61345;48.922;2.244;2023-02-28T12:38:47;11.00;7.00;4.50
73146;PMS7003;61345;48.922;2.244;2023-02-28T12:44:30;10.75;8.50;5.75
73146;PMS7003;61345;48.922;2.244;2023-02-28T12:47:13;10.75;7.00;6.00
73146;PMS7003;61345;48.922;2.244;2023-02-28T12:52:29;11.25;9.50;6.00
73146;PMS7003;61345;48.922;2.244;2023-02-28T12:55:35;7.50;6.00;5.00
73146;PMS7003;61345;48.922;2.244;2023-02-28T13:00:36;10.75;8.50;6.50
73146;PMS7003;61345;48.922;2.244;2023-02-28T13:08:59;7.00;6.50;5.50
73146;PMS7003;61345;48.922;2.244;2023-02-28T13:14:05;8.00;7.00;5.50
73146;PMS7003;61345;48.922;2.244;2023-02-28T13:16:54;11.75;8.25;6.75
73146;PMS7003;61345;48.922;2.244;2023-02-28T13:19:22;10.50;7.50;7.00
73146;PMS7003;61345;48.922;2.244;2023-02-28T13:21:49;5.25;2.25;2.00
73146;PMS7003;61345;48.922;2.244;2023-02-28T13:29:34;8.00;8.00;5.00
73146;PMS7003;61345;48.922;2.244;2023-02-28T13:34:36;8.25;8.00;6.25
73146;PMS7003;61345;48.922;2.244;2023-02-28T13:40:26;11.00;8.75;6.25
73146;PMS7003;61345;48.922;2.244;2023-02-28T13:42:54;11.00;7.75;6.25
73146;PMS7003;61345;48.922;2.244;2023-02-28T13:45:21;7.50;7.00;5.25
73146;PMS7003;61345;48.922;2.244;2023-02-28T13:48:33;8.00;8.00;6.00
73146;PMS7003;61345;48.922;2.244;2023-02-28T13:50:41;6.25;5.50;4.50
73146;PMS7003;61345;48.922;2.244;2023-02-28T14:06:40;8.00;5.00;5.00
73146;PMS7003;61345;48.922;2.244;2023-02-28T14:09:25;5.00;5.00;5.00
73146;PMS7003;61345;48.922;2.244;2023-02-28T14:11:51;7.00;7.00;6.00
73146;PMS7003;61345;48.922;2.244;2023-02-28T14:17:01;8.00;6.75;5.50
73146;PMS7003;61345;48.922;2.244;2023-02-28T14:19:31;8.50;8.00;6.00
73146;PMS7003;61345;48.922;2.244;2023-02-28T14:22:04;11.50;7.50;5.50
73146;PMS7003;61345;48.922;2.244;2023-02-28T14:33:11;13.25;8.75;6.75
73146;PMS7003;61345;48.922;2.244;2023-02-28T14:38:47;10.75;5.00;4.50
73146;PMS7003;61345;48.922;2.244;2023-02-28T14:44:03;7.00;7.00;4.75
73146;PMS7003;61345;48.922;2.244;2023-02-28T14:46:40;9.25;8.00;6.00
73146;PMS7003;61345;48.922;2.244;2023-02-28T14:49:13;7.25;6.75;6.00
73146;PMS7003;61345;48.922;2.244;2023-02-28T14:51:47;6.00;6.00;3.75
73146;PMS7003;61345;48.922;2.244;2023-02-28T14:54:15;8.50;7.00;5.25
73146;PMS7003;61345;48.922;2.244;2023-02-28T14:56:42;7.50;7.50;5.75
73146;PMS7003;61345;48.922;2.244;2023-02-28T14:59:23;7.50;6.25;4.25
73146;PMS7003;61345;48.922;2.244;2023-02-28T15:04:39;10.50;8.25;7.00
73146;PMS7003;61345;48.922;2.244;2023-02-28T15:07:07;7.00;7.00;6.25
73146;PMS7003;61345;48.922;2.244;2023-02-28T15:09:37;8.00;8.00;7.00
73146;PMS7003;61345;48.922;2.244;2023-02-28T15:12:03;9.00;7.75;6.50
73146;PMS7003;61345;48.922;2.244;2023-02-28T15:14:28;8.75;6.00;5.00
73146;PMS7003;61345;48.922;2.244;2023-02-28T15:16:59;9.75;6.75;5.00
73146;PMS7003;61345;48.922;2.244;2023-02-28T15:19:31;6.00;6.00;5.00
73146;PMS7003;61345;48.922;2.244;2023-02-28T15:22:00;9.50;7.00;5.00
73146;PMS7003;61345;48.922;2.244;2023-02-28T15:27:02;7.50;7.00;4.00
73146;PMS7003;61345;48.922;2.244;2023-02-28T15:29:30;8.25;6.00;4.00
73146;PMS7003;61345;48.922;2.244;2023-02-28T15:32:03;7.00;5.25;4.25
73146;PMS7003;61345;48.922;2.244;2023-02-28T15:37:25;11.00;8.00;6.75
73146;PMS7003;61345;48.922;2.244;2023-02-28T15:39:51;10.50;7.25;6.00
73146;PMS7003;61345;48.922;2.244;2023-02-28T15:42:18;12.25;7.75;6.00
73146;PMS7003;61345;48.922;2.244;2023-02-28T15:44:45;6.25;6.25;5.50
73146;PMS7003;61345;48.922;2.244;2023-02-28T15:47:29;10.75;9.25;7.00
73146;PMS7003;61345;48.922;2.244;2023-02-28T15:49:57;13.75;9.00;6.00
73146;PMS7003;61345;48.922;2.244;2023-02-28T15:54:58;10.25;9.25;6.75
73146;PMS7003;61345;48.922;2.244;2023-02-28T15:57:24;6.00;6.00;5.25
73146;PMS7003;61345;48.922;2.244;2023-02-28T16:00:01;7.75;6.00;5.00
73146;PMS7003;61345;48.922;2.244;2023-02-28T16:02:30;5.25;5.00;5.00
73146;PMS7003;61345;48.922;2.244;2023-02-28T16:07:52;9.00;6.50;5.00
73146;PMS7003;61345;48.922;2.244;2023-02-28T16:10:18;4.25;4.25;2.50
73146;PMS7003;61345;48.922;2.244;2023-02-28T16:12:43;13.00;8.00;6.00
73146;PMS7003;61345;48.922;2.244;2023-02-28T16:15:14;8.50;6.00;4.50
73146;PMS7003;61345;48.922;2.244;2023-02-28T16:17:43;9.00;7.50;6.00
73146;PMS7003;61345;48.922;2.244;2023-02-28T16:20:16;10.50;8.50;6.00
73146;PMS7003;61345;48.922;2.244;2023-02-28T16:22:46;9.00;7.50;5.00
73146;PMS7003;61345;48.922;2.244;2023-02-28T16:25:15;11.00;6.00;5.00
73146;PMS7003;61345;48.922;2.244;2023-02-28T16:27:42;11.50;8.25;6.00
73146;PMS7003;61345;48.922;2.244;2023-02-28T16:30:09;6.00;5.00;3.00
73146;PMS7003;61345;48.922;2.244;2023-02-28T16:32:42;6.50;6.50;5.00
73146;PMS7003;61345;48.922;2.244;2023-02-28T16:35:09;6.25;6.25;5.50
73146;PMS7003;61345;48.922;2.244;2023-02-28T16:37:35;6.00;6.00;6.00
73146;PMS7003;61345;48.922;2.244;2023-02-28T16:40:01;9.00;8.00;5.50
73146;PMS7003;61345;48.922;2.244;2023-02-28T16:42:27;6.25;6.25;5.00
73146;PMS7003;61345;48.922;2.244;2023-02-28T16:44:53;12.00;6.50;6.25